Terminal Aerodrome Forecast
Issued by NWS

Home | Current Version | Previous Version | Text Only | Print | Product List | Glossary On
Versions: 1 2 3 4 5 6 7 8 9 10 11 12 13 14 15 16 17 18
000
FTUS43 KDVN 191700
TAFCID
TAF
KCID 191722Z 1918/2018 17016G22KT P6SM FEW060 SCT200
     FM200000 18011KT P6SM BKN250
     FM200600 20011KT 6SM BR SCT060 BKN250
     FM201000 22010KT 6SM BR VCSH SCT030 BKN080
     FM201400 25011KT P6SM BKN050=

USA.gov is the U.S. government's official web portal to all federal, state and local government web resources and services.